sensor_id;sensor_type;location;lat;lon;timestamp;temperature;humidity
2973;DHT22;1496;51.404;7.232;2022-08-19T00:00:17;19.40;1.00
2973;DHT22;1496;51.404;7.232;2022-08-19T00:02:44;19.30;1.00
2973;DHT22;1496;51.404;7.232;2022-08-19T00:05:12;19.30;1.00
2973;DHT22;1496;51.404;7.232;2022-08-19T00:07:38;19.20;1.00
2973;DHT22;1496;51.404;7.232;2022-08-19T00:10:06;19.20;1.00
2973;DHT22;1496;51.404;7.232;2022-08-19T00:12:33;19.20;1.00
2973;DHT22;1496;51.404;7.232;2022-08-19T00:15:00;19.30;1.00
2973;DHT22;1496;51.404;7.232;2022-08-19T00:17:25;19.20;1.00
2973;DHT22;1496;51.404;7.232;2022-08-19T00:19:51;19.20;1.00
2973;DHT22;1496;51.404;7.232;2022-08-19T00:22:18;19.10;1.00
2973;DHT22;1496;51.404;7.232;2022-08-19T00:24:44;19.10;1.00
2973;DHT22;1496;51.404;7.232;2022-08-19T00:27:11;19.00;1.00
2973;DHT22;1496;51.404;7.232;2022-08-19T00:29:37;19.00;1.00
2973;DHT22;1496;51.404;7.232;2022-08-19T00:32:04;19.10;1.00
2973;DHT22;1496;51.404;7.232;2022-08-19T00:34:30;19.10;1.00
2973;DHT22;1496;51.404;7.232;2022-08-19T00:36:57;19.20;1.00
2973;DHT22;1496;51.404;7.232;2022-08-19T00:39:25;19.20;1.00
2973;DHT22;1496;51.404;7.232;2022-08-19T00:41:51;19.10;1.00
2973;DHT22;1496;51.404;7.232;2022-08-19T00:44:23;19.10;1.00
2973;DHT22;1496;51.404;7.232;2022-08-19T00:46:51;19.10;1.00
2973;DHT22;1496;51.404;7.232;2022-08-19T00:52:24;19.10;1.00
2973;DHT22;1496;51.404;7.232;2022-08-19T00:54:51;19.10;1.00
2973;DHT22;1496;51.404;7.232;2022-08-19T00:57:23;19.00;1.00
2973;DHT22;1496;51.404;7.232;2022-08-19T00:59:52;18.90;1.00
2973;DHT22;1496;51.404;7.232;2022-08-19T01:02:20;18.90;1.00
2973;DHT22;1496;51.404;7.232;2022-08-19T01:04:46;18.80;1.00
2973;DHT22;1496;51.404;7.232;2022-08-19T01:07:12;18.80;1.00
2973;DHT22;1496;51.404;7.232;2022-08-19T01:09:39;18.90;1.00
2973;DHT22;1496;51.404;7.232;2022-08-19T01:12:05;19.00;1.00
2973;DHT22;1496;51.404;7.232;2022-08-19T01:14:31;19.00;1.00
2973;DHT22;1496;51.404;7.232;2022-08-19T01:16:57;18.90;1.00
2973;DHT22;1496;51.404;7.232;2022-08-19T01:19:32;18.80;1.00
2973;DHT22;1496;51.404;7.232;2022-08-19T01:24:50;18.70;1.00
2973;DHT22;1496;51.404;7.232;2022-08-19T01:27:17;18.80;1.00
2973;DHT22;1496;51.404;7.232;2022-08-19T01:29:44;18.70;1.00
2973;DHT22;1496;51.404;7.232;2022-08-19T01:32:14;18.70;1.00
2973;DHT22;1496;51.404;7.232;2022-08-19T01:34:41;18.80;1.00
2973;DHT22;1496;51.404;7.232;2022-08-19T01:37:11;18.80;1.00
2973;DHT22;1496;51.404;7.232;2022-08-19T01:39:39;18.90;1.00
2973;DHT22;1496;51.404;7.232;2022-08-19T01:42:07;18.90;1.00
2973;DHT22;1496;51.404;7.232;2022-08-19T01:44:34;18.80;1.00
2973;DHT22;1496;51.404;7.232;2022-08-19T01:47:01;18.70;1.00
2973;DHT22;1496;51.404;7.232;2022-08-19T01:49:28;18.70;1.00
2973;DHT22;1496;51.404;7.232;2022-08-19T01:51:53;18.60;1.00
2973;DHT22;1496;51.404;7.232;2022-08-19T01:54:21;18.60;1.00
2973;DHT22;1496;51.404;7.232;2022-08-19T01:56:47;18.60;1.00
2973;DHT22;1496;51.404;7.232;2022-08-19T01:59:17;18.60;1.00
2973;DHT22;1496;51.404;7.232;2022-08-19T02:01:43;18.60;1.00
2973;DHT22;1496;51.404;7.232;2022-08-19T02:04:09;18.60;1.00
2973;DHT22;1496;51.404;7.232;2022-08-19T02:06:35;18.50;1.00
2973;DHT22;1496;51.404;7.232;2022-08-19T02:09:04;18.40;1.00
2973;DHT22;1496;51.404;7.232;2022-08-19T02:11:35;18.40;1.00
2973;DHT22;1496;51.404;7.232;2022-08-19T02:14:03;18.40;1.00
2973;DHT22;1496;51.404;7.232;2022-08-19T02:16:30;18.30;1.00
2973;DHT22;1496;51.404;7.232;2022-08-19T02:18:56;18.30;1.00
2973;DHT22;1496;51.404;7.232;2022-08-19T02:21:23;18.40;1.00
2973;DHT22;1496;51.404;7.232;2022-08-19T02:23:50;18.40;1.00
2973;DHT22;1496;51.404;7.232;2022-08-19T02:26:20;18.50;1.00
2973;DHT22;1496;51.404;7.232;2022-08-19T02:28:45;18.40;1.00
2973;DHT22;1496;51.404;7.232;2022-08-19T02:31:17;18.40;1.00
2973;DHT22;1496;51.404;7.232;2022-08-19T02:33:45;18.30;1.00
2973;DHT22;1496;51.404;7.232;2022-08-19T02:36:13;18.20;1.00
2973;DHT22;1496;51.404;7.232;2022-08-19T02:38:40;18.10;1.00
2973;DHT22;1496;51.404;7.232;2022-08-19T02:41:12;18.00;1.00
2973;DHT22;1496;51.404;7.232;2022-08-19T02:43:38;18.00;1.00
2973;DHT22;1496;51.404;7.232;2022-08-19T02:46:14;18.00;1.00
2973;DHT22;1496;51.404;7.232;2022-08-19T02:48:40;18.00;1.00
2973;DHT22;1496;51.404;7.232;2022-08-19T02:51:06;18.00;1.00
2973;DHT22;1496;51.404;7.232;2022-08-19T02:53:31;17.90;1.00
2973;DHT22;1496;51.404;7.232;2022-08-19T02:55:58;17.80;1.00
2973;DHT22;1496;51.404;7.232;2022-08-19T02:58:24;17.70;1.00
2973;DHT22;1496;51.404;7.232;2022-08-19T03:00:54;17.70;1.00
2973;DHT22;1496;51.404;7.232;2022-08-19T03:03:21;17.70;1.00
2973;DHT22;1496;51.404;7.232;2022-08-19T03:05:47;17.70;1.00
2973;DHT22;1496;51.404;7.232;2022-08-19T03:08:13;17.60;1.00
2973;DHT22;1496;51.404;7.232;2022-08-19T03:10:41;17.70;1.00
2973;DHT22;1496;51.404;7.232;2022-08-19T03:13:11;17.70;1.00
2973;DHT22;1496;51.404;7.232;2022-08-19T03:15:42;17.70;1.00
2973;DHT22;1496;51.404;7.232;2022-08-19T03:18:09;17.80;1.00
2973;DHT22;1496;51.404;7.232;2022-08-19T03:20:40;17.80;1.00
2973;DHT22;1496;51.404;7.232;2022-08-19T03:23:07;17.80;1.00
2973;DHT22;1496;51.404;7.232;2022-08-19T03:25:38;17.60;1.60
2973;DHT22;1496;51.404;7.232;2022-08-19T03:28:04;17.60;1.40
2973;DHT22;1496;51.404;7.232;2022-08-19T03:30:30;17.60;3.30
2973;DHT22;1496;51.404;7.232;2022-08-19T03:32:56;17.60;4.70
2973;DHT22;1496;51.404;7.232;2022-08-19T03:35:22;17.70;5.50
2973;DHT22;1496;51.404;7.232;2022-08-19T03:37:48;17.70;6.20
2973;DHT22;1496;51.404;7.232;2022-08-19T03:40:14;17.80;3.90
2973;DHT22;1496;51.404;7.232;2022-08-19T03:42:40;17.80;4.20
2973;DHT22;1496;51.404;7.232;2022-08-19T03:45:08;17.80;5.20
2973;DHT22;1496;51.404;7.232;2022-08-19T03:47:35;17.80;6.70
2973;DHT22;1496;51.404;7.232;2022-08-19T03:50:03;17.80;6.10
2973;DHT22;1496;51.404;7.232;2022-08-19T03:52:29;17.70;7.30
2973;DHT22;1496;51.404;7.232;2022-08-19T03:54:55;17.60;8.00
2973;DHT22;1496;51.404;7.232;2022-08-19T03:57:24;17.60;12.30
2973;DHT22;1496;51.404;7.232;2022-08-19T03:59:50;17.60;16.40
2973;DHT22;1496;51.404;7.232;2022-08-19T04:02:18;17.70;14.50
2973;DHT22;1496;51.404;7.232;2022-08-19T04:04:44;17.60;19.00
2973;DHT22;1496;51.404;7.232;2022-08-19T04:07:14;17.70;18.40
2973;DHT22;1496;51.404;7.232;2022-08-19T04:09:47;17.70;17.10
2973;DHT22;1496;51.404;7.232;2022-08-19T04:12:13;17.70;15.20
2973;DHT22;1496;51.404;7.232;2022-08-19T04:14:40;17.70;16.70
2973;DHT22;1496;51.404;7.232;2022-08-19T04:17:07;17.80;16.70
2973;DHT22;1496;51.404;7.232;2022-08-19T04:19:35;17.80;17.30
2973;DHT22;1496;51.404;7.232;2022-08-19T04:22:01;17.80;16.20
2973;DHT22;1496;51.404;7.232;2022-08-19T04:24:27;17.70;18.30
2973;DHT22;1496;51.404;7.232;2022-08-19T04:26:53;17.70;19.40
2973;DHT22;1496;51.404;7.232;2022-08-19T04:29:23;17.60;23.90
2973;DHT22;1496;51.404;7.232;2022-08-19T04:31:54;17.70;24.10
2973;DHT22;1496;51.404;7.232;2022-08-19T04:34:22;17.70;25.10
2973;DHT22;1496;51.404;7.232;2022-08-19T04:36:50;17.70;31.10
2973;DHT22;1496;51.404;7.232;2022-08-19T04:39:19;17.80;22.30
2973;DHT22;1496;51.404;7.232;2022-08-19T04:41:46;17.70;17.00
2973;DHT22;1496;51.404;7.232;2022-08-19T04:44:33;17.70;15.80
2973;DHT22;1496;51.404;7.232;2022-08-19T04:46:59;17.70;17.20
2973;DHT22;1496;51.404;7.232;2022-08-19T04:49:26;17.70;19.10
2973;DHT22;1496;51.404;7.232;2022-08-19T04:51:53;17.70;19.80
2973;DHT22;1496;51.404;7.232;2022-08-19T04:54:21;17.70;20.30
2973;DHT22;1496;51.404;7.232;2022-08-19T04:56:49;17.70;22.40
2973;DHT22;1496;51.404;7.232;2022-08-19T04:59:16;17.70;24.60
2973;DHT22;1496;51.404;7.232;2022-08-19T05:01:44;17.80;24.30
2973;DHT22;1496;51.404;7.232;2022-08-19T05:04:18;17.90;25.00
2973;DHT22;1496;51.404;7.232;2022-08-19T05:06:45;18.00;24.60
2973;DHT22;1496;51.404;7.232;2022-08-19T05:09:12;18.10;22.50
2973;DHT22;1496;51.404;7.232;2022-08-19T05:11:39;18.10;22.20
2973;DHT22;1496;51.404;7.232;2022-08-19T05:14:07;18.10;22.50
2973;DHT22;1496;51.404;7.232;2022-08-19T05:16:33;18.10;21.20
2973;DHT22;1496;51.404;7.232;2022-08-19T05:19:02;18.20;22.30
2973;DHT22;1496;51.404;7.232;2022-08-19T05:21:47;18.20;22.00
2973;DHT22;1496;51.404;7.232;2022-08-19T05:24:32;18.30;25.70
2973;DHT22;1496;51.404;7.232;2022-08-19T05:27:04;18.50;22.70
2973;DHT22;1496;51.404;7.232;2022-08-19T05:29:32;18.50;22.70
2973;DHT22;1496;51.404;7.232;2022-08-19T05:32:00;18.50;21.40
2973;DHT22;1496;51.404;7.232;2022-08-19T05:34:29;18.60;20.70
2973;DHT22;1496;51.404;7.232;2022-08-19T05:36:58;18.50;21.20
2973;DHT22;1496;51.404;7.232;2022-08-19T05:39:28;18.50;21.40
2973;DHT22;1496;51.404;7.232;2022-08-19T05:42:00;18.60;21.40
2973;DHT22;1496;51.404;7.232;2022-08-19T05:44:39;18.60;21.10
2973;DHT22;1496;51.404;7.232;2022-08-19T05:47:15;18.60;21.70
2973;DHT22;1496;51.404;7.232;2022-08-19T05:49:42;18.70;21.80
2973;DHT22;1496;51.404;7.232;2022-08-19T05:52:10;18.70;22.90
2973;DHT22;1496;51.404;7.232;2022-08-19T05:54:40;18.70;22.60
2973;DHT22;1496;51.404;7.232;2022-08-19T05:57:09;18.80;29.20
2973;DHT22;1496;51.404;7.232;2022-08-19T05:59:37;18.70;20.20
2973;DHT22;1496;51.404;7.232;2022-08-19T06:02:06;18.70;21.90
2973;DHT22;1496;51.404;7.232;2022-08-19T06:04:33;18.80;19.70
2973;DHT22;1496;51.404;7.232;2022-08-19T06:06:59;18.70;21.60
2973;DHT22;1496;51.404;7.232;2022-08-19T06:09:32;18.70;20.80
2973;DHT22;1496;51.404;7.232;2022-08-19T06:11:59;18.90;18.40
2973;DHT22;1496;51.404;7.232;2022-08-19T06:14:33;18.90;14.60
2973;DHT22;1496;51.404;7.232;2022-08-19T06:17:00;19.00;13.10
2973;DHT22;1496;51.404;7.232;2022-08-19T06:19:30;19.00;13.10
2973;DHT22;1496;51.404;7.232;2022-08-19T06:22:03;19.10;13.30
2973;DHT22;1496;51.404;7.232;2022-08-19T06:24:31;19.30;12.50
2973;DHT22;1496;51.404;7.232;2022-08-19T06:26:58;19.30;11.20
2973;DHT22;1496;51.404;7.232;2022-08-19T06:29:28;19.40;9.40
2973;DHT22;1496;51.404;7.232;2022-08-19T06:31:58;19.40;10.20
2973;DHT22;1496;51.404;7.232;2022-08-19T06:34:25;19.40;10.60
2973;DHT22;1496;51.404;7.232;2022-08-19T06:37:00;19.60;10.60
2973;DHT22;1496;51.404;7.232;2022-08-19T06:39:35;19.60;9.50
2973;DHT22;1496;51.404;7.232;2022-08-19T06:42:03;19.70;16.90
2973;DHT22;1496;51.404;7.232;2022-08-19T06:44:34;19.70;9.60
2973;DHT22;1496;51.404;7.232;2022-08-19T06:47:07;19.70;10.10
2973;DHT22;1496;51.404;7.232;2022-08-19T06:49:58;19.70;8.80
2973;DHT22;1496;51.404;7.232;2022-08-19T06:52:33;19.70;10.40
2973;DHT22;1496;51.404;7.232;2022-08-19T06:55:00;19.80;10.60
2973;DHT22;1496;51.404;7.232;2022-08-19T06:57:29;19.80;11.20
2973;DHT22;1496;51.404;7.232;2022-08-19T06:59:57;19.90;10.70
2973;DHT22;1496;51.404;7.232;2022-08-19T07:02:23;20.00;11.80
2973;DHT22;1496;51.404;7.232;2022-08-19T07:04:52;20.10;10.30
2973;DHT22;1496;51.404;7.232;2022-08-19T07:07:20;20.20;11.00
2973;DHT22;1496;51.404;7.232;2022-08-19T07:09:45;20.40;9.70
2973;DHT22;1496;51.404;7.232;2022-08-19T07:12:13;20.50;8.00
2973;DHT22;1496;51.404;7.232;2022-08-19T07:14:41;20.60;7.00
2973;DHT22;1496;51.404;7.232;2022-08-19T07:17:12;20.60;7.20
2973;DHT22;1496;51.404;7.232;2022-08-19T07:19:41;20.70;5.60
2973;DHT22;1496;51.404;7.232;2022-08-19T07:22:09;20.60;5.00
2973;DHT22;1496;51.404;7.232;2022-08-19T07:24:36;20.60;5.80
2973;DHT22;1496;51.404;7.232;2022-08-19T07:27:04;20.70;4.60
2973;DHT22;1496;51.404;7.232;2022-08-19T07:29:32;20.80;5.30
2973;DHT22;1496;51.404;7.232;2022-08-19T07:32:00;20.80;4.20
2973;DHT22;1496;51.404;7.232;2022-08-19T07:34:34;20.90;6.90
2973;DHT22;1496;51.404;7.232;2022-08-19T07:37:06;21.00;2.80
2973;DHT22;1496;51.404;7.232;2022-08-19T07:39:36;21.10;1.10
2973;DHT22;1496;51.404;7.232;2022-08-19T07:42:07;21.20;1.80
2973;DHT22;1496;51.404;7.232;2022-08-19T07:44:40;21.20;1.00
2973;DHT22;1496;51.404;7.232;2022-08-19T07:47:12;21.10;1.00
2973;DHT22;1496;51.404;7.232;2022-08-19T07:49:41;21.10;1.00
2973;DHT22;1496;51.404;7.232;2022-08-19T07:52:09;21.10;1.00
2973;DHT22;1496;51.404;7.232;2022-08-19T07:54:37;21.10;1.00
2973;DHT22;1496;51.404;7.232;2022-08-19T07:57:05;21.10;1.00
2973;DHT22;1496;51.404;7.232;2022-08-19T07:59:37;21.20;1.00
2973;DHT22;1496;51.404;7.232;2022-08-19T08:02:04;21.10;1.00
2973;DHT22;1496;51.404;7.232;2022-08-19T08:04:31;21.00;1.00
2973;DHT22;1496;51.404;7.232;2022-08-19T08:07:16;21.00;1.00
2973;DHT22;1496;51.404;7.232;2022-08-19T08:10:00;21.10;1.00
2973;DHT22;1496;51.404;7.232;2022-08-19T08:12:32;21.20;1.00
2973;DHT22;1496;51.404;7.232;2022-08-19T08:15:02;21.30;1.00
2973;DHT22;1496;51.404;7.232;2022-08-19T08:17:30;21.40;1.00
2973;DHT22;1496;51.404;7.232;2022-08-19T08:19:57;21.40;1.00
2973;DHT22;1496;51.404;7.232;2022-08-19T08:22:24;21.50;1.00
2973;DHT22;1496;51.404;7.232;2022-08-19T08:25:15;21.60;1.00
2973;DHT22;1496;51.404;7.232;2022-08-19T08:27:44;21.60;1.00
2973;DHT22;1496;51.404;7.232;2022-08-19T08:30:24;21.80;1.00
2973;DHT22;1496;51.404;7.232;2022-08-19T08:32:50;21.90;1.00
2973;DHT22;1496;51.404;7.232;2022-08-19T08:35:43;22.00;1.00
2973;DHT22;1496;51.404;7.232;2022-08-19T08:38:11;22.10;1.00
2973;DHT22;1496;51.404;7.232;2022-08-19T08:41:18;22.00;1.00
2973;DHT22;1496;51.404;7.232;2022-08-19T08:43:47;22.10;1.00
2973;DHT22;1496;51.404;7.232;2022-08-19T08:46:42;22.40;1.00
2973;DHT22;1496;51.404;7.232;2022-08-19T08:52:11;22.70;1.00
2973;DHT22;1496;51.404;7.232;2022-08-19T08:54:43;22.70;1.00
2973;DHT22;1496;51.404;7.232;2022-08-19T08:59:59;22.80;1.00
2973;DHT22;1496;51.404;7.232;2022-08-19T09:02:26;22.90;1.00
2973;DHT22;1496;51.404;7.232;2022-08-19T09:04:54;23.10;1.00
2973;DHT22;1496;51.404;7.232;2022-08-19T09:10:34;23.20;1.00
2973;DHT22;1496;51.404;7.232;2022-08-19T09:15:42;23.30;1.00
2973;DHT22;1496;51.404;7.232;2022-08-19T09:18:13;23.30;1.00
2973;DHT22;1496;51.404;7.232;2022-08-19T09:20:39;23.30;1.00
2973;DHT22;1496;51.404;7.232;2022-08-19T09:23:06;23.30;1.00
2973;DHT22;1496;51.404;7.232;2022-08-19T09:25:32;23.50;1.00
2973;DHT22;1496;51.404;7.232;2022-08-19T09:28:01;23.30;1.00
2973;DHT22;1496;51.404;7.232;2022-08-19T09:30:40;23.30;1.00
2973;DHT22;1496;51.404;7.232;2022-08-19T09:33:06;23.60;1.00
2973;DHT22;1496;51.404;7.232;2022-08-19T09:35:33;23.80;1.00
2973;DHT22;1496;51.404;7.232;2022-08-19T09:38:00;23.90;1.00
2973;DHT22;1496;51.404;7.232;2022-08-19T09:40:30;23.90;1.00
2973;DHT22;1496;51.404;7.232;2022-08-19T09:42:56;23.90;1.00
2973;DHT22;1496;51.404;7.232;2022-08-19T09:45:23;24.00;1.00
2973;DHT22;1496;51.404;7.232;2022-08-19T09:47:51;23.60;1.00
2973;DHT22;1496;51.404;7.232;2022-08-19T09:50:17;23.40;1.00
2973;DHT22;1496;51.404;7.232;2022-08-19T09:52:47;23.70;1.00
2973;DHT22;1496;51.404;7.232;2022-08-19T09:55:13;24.00;1.00
2973;DHT22;1496;51.404;7.232;2022-08-19T09:57:39;24.00;1.00
2973;DHT22;1496;51.404;7.232;2022-08-19T10:00:08;23.80;1.00
2973;DHT22;1496;51.404;7.232;2022-08-19T10:02:37;23.60;1.00
2973;DHT22;1496;51.404;7.232;2022-08-19T10:05:06;23.60;1.00
2973;DHT22;1496;51.404;7.232;2022-08-19T10:07:57;23.90;1.00
2973;DHT22;1496;51.404;7.232;2022-08-19T10:10:26;24.10;1.00
2973;DHT22;1496;51.404;7.232;2022-08-19T10:12:58;24.20;1.00
2973;DHT22;1496;51.404;7.232;2022-08-19T10:15:27;24.60;1.00
2973;DHT22;1496;51.404;7.232;2022-08-19T10:17:59;24.70;1.00
2973;DHT22;1496;51.404;7.232;2022-08-19T10:20:28;24.40;1.00
2973;DHT22;1496;51.404;7.232;2022-08-19T10:22:58;24.20;1.00
2973;DHT22;1496;51.404;7.232;2022-08-19T10:25:25;24.40;1.00
2973;DHT22;1496;51.404;7.232;2022-08-19T10:27:52;24.60;1.00
2973;DHT22;1496;51.404;7.232;2022-08-19T10:30:19;24.50;1.00
2973;DHT22;1496;51.404;7.232;2022-08-19T10:32:45;24.60;1.00
2973;DHT22;1496;51.404;7.232;2022-08-19T10:35:12;24.60;1.00
2973;DHT22;1496;51.404;7.232;2022-08-19T10:37:44;24.60;1.00
2973;DHT22;1496;51.404;7.232;2022-08-19T10:40:14;24.80;1.00
2973;DHT22;1496;51.404;7.232;2022-08-19T10:42:43;24.90;1.00
2973;DHT22;1496;51.404;7.232;2022-08-19T10:45:10;24.90;1.00
2973;DHT22;1496;51.404;7.232;2022-08-19T10:47:39;24.60;1.00
2973;DHT22;1496;51.404;7.232;2022-08-19T10:50:05;24.90;1.00
2973;DHT22;1496;51.404;7.232;2022-08-19T10:52:50;24.80;1.00
2973;DHT22;1496;51.404;7.232;2022-08-19T10:55:21;24.70;1.00
2973;DHT22;1496;51.404;7.232;2022-08-19T10:58:14;24.60;1.00
2973;DHT22;1496;51.404;7.232;2022-08-19T11:00:41;24.80;1.00
2973;DHT22;1496;51.404;7.232;2022-08-19T11:03:08;25.10;1.00
2973;DHT22;1496;51.404;7.232;2022-08-19T11:05:35;25.20;1.00
2973;DHT22;1496;51.404;7.232;2022-08-19T11:08:06;25.20;1.00
2973;DHT22;1496;51.404;7.232;2022-08-19T11:10:41;25.00;1.00
2973;DHT22;1496;51.404;7.232;2022-08-19T11:13:08;25.10;1.00
2973;DHT22;1496;51.404;7.232;2022-08-19T11:15:34;25.10;1.00
2973;DHT22;1496;51.404;7.232;2022-08-19T11:18:00;25.10;1.00
2973;DHT22;1496;51.404;7.232;2022-08-19T11:20:29;25.20;1.00
2973;DHT22;1496;51.404;7.232;2022-08-19T11:22:57;25.30;1.00
2973;DHT22;1496;51.404;7.232;2022-08-19T11:25:29;25.40;1.00
2973;DHT22;1496;51.404;7.232;2022-08-19T11:28:05;25.50;1.00
2973;DHT22;1496;51.404;7.232;2022-08-19T11:30:31;25.70;1.00
2973;DHT22;1496;51.404;7.232;2022-08-19T11:32:57;25.80;1.00
2973;DHT22;1496;51.404;7.232;2022-08-19T11:35:23;25.90;1.00
2973;DHT22;1496;51.404;7.232;2022-08-19T11:38:08;26.00;1.00
2973;DHT22;1496;51.404;7.232;2022-08-19T11:40:37;26.00;1.00
2973;DHT22;1496;51.404;7.232;2022-08-19T11:43:03;25.90;1.00
2973;DHT22;1496;51.404;7.232;2022-08-19T11:45:32;25.80;1.00
2973;DHT22;1496;51.404;7.232;2022-08-19T11:47:58;25.60;1.00
2973;DHT22;1496;51.404;7.232;2022-08-19T11:50:24;25.10;1.00
2973;DHT22;1496;51.404;7.232;2022-08-19T11:52:54;25.10;1.00
2973;DHT22;1496;51.404;7.232;2022-08-19T11:55:20;25.40;1.00
2973;DHT22;1496;51.404;7.232;2022-08-19T11:57:51;25.10;1.00
2973;DHT22;1496;51.404;7.232;2022-08-19T12:00:20;25.00;1.00
2973;DHT22;1496;51.404;7.232;2022-08-19T12:02:50;24.90;1.00
2973;DHT22;1496;51.404;7.232;2022-08-19T12:05:16;24.70;1.00
2973;DHT22;1496;51.404;7.232;2022-08-19T12:07:42;24.40;1.00
2973;DHT22;1496;51.404;7.232;2022-08-19T12:10:09;24.70;1.00
2973;DHT22;1496;51.404;7.232;2022-08-19T12:12:35;25.00;1.00
2973;DHT22;1496;51.404;7.232;2022-08-19T12:15:03;25.30;1.00
2973;DHT22;1496;51.404;7.232;2022-08-19T12:17:49;25.50;1.00
2973;DHT22;1496;51.404;7.232;2022-08-19T12:20:23;25.60;1.00
2973;DHT22;1496;51.404;7.232;2022-08-19T12:22:49;25.90;1.00
2973;DHT22;1496;51.404;7.232;2022-08-19T12:25:16;25.90;1.00
2973;DHT22;1496;51.404;7.232;2022-08-19T12:27:46;26.10;1.00
2973;DHT22;1496;51.404;7.232;2022-08-19T12:30:15;26.20;1.00
2973;DHT22;1496;51.404;7.232;2022-08-19T12:32:41;26.20;1.00
2973;DHT22;1496;51.404;7.232;2022-08-19T12:35:08;26.20;1.00
2973;DHT22;1496;51.404;7.232;2022-08-19T12:37:37;26.10;1.00
2973;DHT22;1496;51.404;7.232;2022-08-19T12:40:04;26.30;1.00
2973;DHT22;1496;51.404;7.232;2022-08-19T12:42:31;26.40;1.00
2973;DHT22;1496;51.404;7.232;2022-08-19T12:44:57;26.50;1.00
2973;DHT22;1496;51.404;7.232;2022-08-19T12:47:23;26.60;1.00
2973;DHT22;1496;51.404;7.232;2022-08-19T12:49:52;26.70;1.00
2973;DHT22;1496;51.404;7.232;2022-08-19T12:52:18;26.70;1.00
2973;DHT22;1496;51.404;7.232;2022-08-19T12:54:46;26.50;1.00
2973;DHT22;1496;51.404;7.232;2022-08-19T12:57:13;26.40;1.00
2973;DHT22;1496;51.404;7.232;2022-08-19T12:59:52;26.40;1.00
2973;DHT22;1496;51.404;7.232;2022-08-19T13:02:19;26.40;1.00
2973;DHT22;1496;51.404;7.232;2022-08-19T13:04:45;26.60;1.00
2973;DHT22;1496;51.404;7.232;2022-08-19T13:07:11;26.90;1.00
2973;DHT22;1496;51.404;7.232;2022-08-19T13:09:37;26.90;1.00
2973;DHT22;1496;51.404;7.232;2022-08-19T13:12:03;26.90;1.00
2973;DHT22;1496;51.404;7.232;2022-08-19T13:14:34;26.80;1.00
2973;DHT22;1496;51.404;7.232;2022-08-19T13:17:00;26.70;1.00
2973;DHT22;1496;51.404;7.232;2022-08-19T13:19:26;26.60;1.00
2973;DHT22;1496;51.404;7.232;2022-08-19T13:21:52;26.60;1.00
2973;DHT22;1496;51.404;7.232;2022-08-19T13:24:20;26.60;1.00
2973;DHT22;1496;51.404;7.232;2022-08-19T13:26:47;26.50;1.00
2973;DHT22;1496;51.404;7.232;2022-08-19T13:29:13;26.60;1.00
2973;DHT22;1496;51.404;7.232;2022-08-19T13:31:58;26.50;1.00
2973;DHT22;1496;51.404;7.232;2022-08-19T13:34:53;26.50;1.00
2973;DHT22;1496;51.404;7.232;2022-08-19T13:37:19;26.40;1.00
2973;DHT22;1496;51.404;7.232;2022-08-19T13:40:05;26.50;1.00
2973;DHT22;1496;51.404;7.232;2022-08-19T13:42:33;26.60;1.00
2973;DHT22;1496;51.404;7.232;2022-08-19T13:45:02;26.60;1.00
2973;DHT22;1496;51.404;7.232;2022-08-19T13:47:30;26.60;1.00
2973;DHT22;1496;51.404;7.232;2022-08-19T13:50:02;26.70;1.00
2973;DHT22;1496;51.404;7.232;2022-08-19T13:52:28;26.70;1.00
2973;DHT22;1496;51.404;7.232;2022-08-19T13:54:57;26.60;1.00
2973;DHT22;1496;51.404;7.232;2022-08-19T13:57:23;26.30;1.00
2973;DHT22;1496;51.404;7.232;2022-08-19T13:59:49;26.20;1.00
2973;DHT22;1496;51.404;7.232;2022-08-19T14:02:15;26.10;1.00
2973;DHT22;1496;51.404;7.232;2022-08-19T14:04:41;26.00;1.00
2973;DHT22;1496;51.404;7.232;2022-08-19T14:07:07;26.10;1.00
2973;DHT22;1496;51.404;7.232;2022-08-19T14:09:33;26.20;1.00
2973;DHT22;1496;51.404;7.232;2022-08-19T14:12:05;26.30;1.00
2973;DHT22;1496;51.404;7.232;2022-08-19T14:14:31;26.50;1.00
2973;DHT22;1496;51.404;7.232;2022-08-19T14:16:58;26.40;1.00
2973;DHT22;1496;51.404;7.232;2022-08-19T14:19:24;26.60;1.00
2973;DHT22;1496;51.404;7.232;2022-08-19T14:21:52;26.70;1.00
2973;DHT22;1496;51.404;7.232;2022-08-19T14:24:22;26.60;1.00
2973;DHT22;1496;51.404;7.232;2022-08-19T14:26:48;26.60;1.00
2973;DHT22;1496;51.404;7.232;2022-08-19T14:29:14;26.70;1.00
2973;DHT22;1496;51.404;7.232;2022-08-19T14:31:44;26.80;1.00
2973;DHT22;1496;51.404;7.232;2022-08-19T14:34:10;26.80;1.00
2973;DHT22;1496;51.404;7.232;2022-08-19T14:36:38;26.80;1.00
2973;DHT22;1496;51.404;7.232;2022-08-19T14:39:04;26.90;1.00
2973;DHT22;1496;51.404;7.232;2022-08-19T14:41:30;26.70;1.00
2973;DHT22;1496;51.404;7.232;2022-08-19T14:43:59;26.70;1.00
2973;DHT22;1496;51.404;7.232;2022-08-19T14:46:29;26.60;1.00
2973;DHT22;1496;51.404;7.232;2022-08-19T14:48:58;26.50;1.00
2973;DHT22;1496;51.404;7.232;2022-08-19T14:51:25;26.40;1.00
2973;DHT22;1496;51.404;7.232;2022-08-19T14:53:55;26.40;1.00
2973;DHT22;1496;51.404;7.232;2022-08-19T14:56:25;26.50;1.00
2973;DHT22;1496;51.404;7.232;2022-08-19T14:58:51;26.50;1.00
2973;DHT22;1496;51.404;7.232;2022-08-19T15:01:23;26.60;1.00
2973;DHT22;1496;51.404;7.232;2022-08-19T15:03:52;26.50;1.00
2973;DHT22;1496;51.404;7.232;2022-08-19T15:06:21;26.30;1.00
2973;DHT22;1496;51.404;7.232;2022-08-19T15:08:47;26.20;1.00
2973;DHT22;1496;51.404;7.232;2022-08-19T15:11:17;26.20;1.00
2973;DHT22;1496;51.404;7.232;2022-08-19T15:13:47;26.20;1.00
2973;DHT22;1496;51.404;7.232;2022-08-19T15:16:14;26.30;1.00
2973;DHT22;1496;51.404;7.232;2022-08-19T15:18:48;26.10;1.00
2973;DHT22;1496;51.404;7.232;2022-08-19T15:21:18;26.00;1.00
2973;DHT22;1496;51.404;7.232;2022-08-19T15:23:45;25.90;1.00
2973;DHT22;1496;51.404;7.232;2022-08-19T15:26:11;25.90;1.00
2973;DHT22;1496;51.404;7.232;2022-08-19T15:28:39;26.10;1.00
2973;DHT22;1496;51.404;7.232;2022-08-19T15:31:05;26.10;1.00
2973;DHT22;1496;51.404;7.232;2022-08-19T15:33:35;26.10;1.00
2973;DHT22;1496;51.404;7.232;2022-08-19T15:36:13;26.10;1.00
2973;DHT22;1496;51.404;7.232;2022-08-19T15:38:43;25.90;1.00
2973;DHT22;1496;51.404;7.232;2022-08-19T15:41:20;25.90;1.00
2973;DHT22;1496;51.404;7.232;2022-08-19T15:44:01;26.10;1.00
2973;DHT22;1496;51.404;7.232;2022-08-19T15:46:32;26.20;1.00
2973;DHT22;1496;51.404;7.232;2022-08-19T15:48:59;26.40;1.00
2973;DHT22;1496;51.404;7.232;2022-08-19T15:51:29;26.40;1.00
2973;DHT22;1496;51.404;7.232;2022-08-19T15:54:00;26.30;1.00
2973;DHT22;1496;51.404;7.232;2022-08-19T15:56:26;26.30;1.00
2973;DHT22;1496;51.404;7.232;2022-08-19T15:59:13;26.20;1.00
2973;DHT22;1496;51.404;7.232;2022-08-19T16:01:57;26.10;1.00
2973;DHT22;1496;51.404;7.232;2022-08-19T16:04:42;26.10;1.00
2973;DHT22;1496;51.404;7.232;2022-08-19T16:07:27;26.00;1.00
2973;DHT22;1496;51.404;7.232;2022-08-19T16:09:53;26.10;1.00
2973;DHT22;1496;51.404;7.232;2022-08-19T16:12:21;25.80;1.00
2973;DHT22;1496;51.404;7.232;2022-08-19T16:14:52;25.70;1.00
2973;DHT22;1496;51.404;7.232;2022-08-19T16:17:19;25.60;1.00
2973;DHT22;1496;51.404;7.232;2022-08-19T16:19:44;25.50;1.00
2973;DHT22;1496;51.404;7.232;2022-08-19T16:22:10;25.50;1.00
2973;DHT22;1496;51.404;7.232;2022-08-19T16:24:37;25.60;1.00
2973;DHT22;1496;51.404;7.232;2022-08-19T16:27:04;25.60;1.00
2973;DHT22;1496;51.404;7.232;2022-08-19T16:29:30;25.60;1.00
2973;DHT22;1496;51.404;7.232;2022-08-19T16:31:56;25.50;1.00
2973;DHT22;1496;51.404;7.232;2022-08-19T16:34:23;25.50;1.00
2973;DHT22;1496;51.404;7.232;2022-08-19T16:36:49;25.50;1.00
2973;DHT22;1496;51.404;7.232;2022-08-19T16:39:16;25.60;1.00
2973;DHT22;1496;51.404;7.232;2022-08-19T16:41:44;25.60;1.00
2973;DHT22;1496;51.404;7.232;2022-08-19T16:44:13;25.70;1.00